Time;durP1;ratioP1;P1;durP2;ratioP2;P2;SDS_P1;SDS_P2;PMS_P1;PMS_P2;Temp;Humidity;BMP_temperature;BMP_pressure;BME280_temperature;BME280_humidity;BME280_pressure;Samples;Min_cycle;Max_cycle;Signal;HPM_P1;HPM_P2
2023/07/21 00:01:02;;;;;;;2.67;2.00;;;18.40;58.50;;;18.36;53.14;97539.84;5133076;27;20452;-70
2023/07/21 00:03:30;;;;;;;3.53;2.40;;;18.30;58.40;;;18.54;53.06;97540.31;5126488;27;20473;-71
2023/07/21 00:05:57;;;;;;;3.10;2.80;;;18.40;58.70;;;18.38;53.04;97536.84;5128571;27;20468;-71
2023/07/21 00:08:28;;;;;;;4.23;2.20;;;18.40;58.50;;;18.55;53.23;97536.50;5117243;27;20943;-70
2023/07/21 00:10:56;;;;;;;3.93;2.20;;;18.40;58.90;;;18.77;53.58;97516.97;5137799;27;20451;-69
2023/07/21 00:13:24;;;;;;;2.83;2.07;;;18.60;59.40;;;18.92;51.79;97524.31;5096303;28;20455;-69
2023/07/21 00:15:52;;;;;;;3.03;2.33;;;18.80;58.60;;;18.72;53.41;97517.00;5124841;27;20450;-70
2023/07/21 00:18:20;;;;;;;2.50;2.20;;;18.70;59.00;;;18.52;53.09;97517.91;5109632;27;20525;-68
2023/07/21 00:20:48;;;;;;;2.60;2.40;;;18.60;58.60;;;18.40;53.52;97508.09;5105509;27;20454;-71
2023/07/21 00:23:16;;;;;;;3.30;2.57;;;18.40;59.00;;;18.44;53.37;97513.84;5117801;27;20546;-71
2023/07/21 00:25:45;;;;;;;2.90;2.70;;;18.40;59.00;;;18.37;53.25;97505.13;5118539;27;20554;-70
2023/07/21 00:28:12;;;;;;;3.37;2.40;;;18.30;59.00;;;18.23;53.85;97491.22;5134305;27;20457;-71
2023/07/21 00:30:40;;;;;;;2.20;2.10;;;18.30;59.40;;;18.54;53.96;97502.03;5105072;27;20457;-70
2023/07/21 00:33:07;;;;;;;3.87;1.80;;;18.40;59.70;;;18.62;53.85;97504.19;5122862;27;20458;-71
2023/07/21 00:35:34;;;;;;;4.13;2.30;;;18.40;59.60;;;18.58;53.66;97492.19;5124588;27;20526;-70
2023/07/21 00:38:02;;;;;;;4.17;2.10;;;18.40;59.70;;;18.38;53.70;97493.09;5112319;27;21019;-71
2023/07/21 00:40:32;;;;;;;3.03;2.73;;;18.30;59.80;;;18.34;54.28;97495.56;5117129;27;20450;-71
2023/07/21 00:43:01;;;;;;;2.90;2.23;;;18.20;59.70;;;18.20;54.36;97491.78;5122672;27;21014;-71
2023/07/21 00:45:31;;;;;;;2.63;2.43;;;18.10;59.80;;;18.27;54.08;97490.38;5106412;27;20496;-70
2023/07/21 00:47:58;;;;;;;2.57;2.37;;;18.20;59.70;;;18.85;53.64;97492.88;5102108;28;20461;-70
2023/07/21 00:50:26;;;;;;;3.20;2.23;;;18.40;60.70;;;18.61;53.31;97485.31;5102136;28;20510;-70
2023/07/21 00:52:53;;;;;;;2.80;2.40;;;18.30;59.90;;;18.40;54.10;97475.28;5099915;28;20446;-70
2023/07/21 00:55:21;;;;;;;2.43;2.23;;;18.20;60.30;;;18.21;54.56;97457.88;5118634;27;20446;-70
2023/07/21 00:57:48;;;;;;;2.50;2.30;;;18.10;60.90;;;18.10;54.55;97481.69;5117465;27;20481;-71
2023/07/21 01:00:17;;;;;;;3.77;2.10;;;18.00;60.50;;;18.20;54.71;97480.84;5120769;27;20467;-70
2023/07/21 01:02:49;;;;;;;2.67;2.47;;;18.00;60.60;;;18.07;54.79;97477.59;5119158;27;20983;-70
2023/07/21 01:05:17;;;;;;;2.90;2.57;;;18.00;60.60;;;17.82;55.66;97476.53;5122319;27;20441;-69
2023/07/21 01:07:45;;;;;;;2.77;2.47;;;17.80;60.90;;;18.37;54.87;97467.66;5092830;27;20822;-70
2023/07/21 01:10:13;;;;;;;2.40;2.20;;;18.00;61.50;;;17.92;55.67;97472.97;5095338;28;20474;-71
2023/07/21 01:12:41;;;;;;;2.87;2.30;;;17.90;61.10;;;18.11;55.60;97467.72;5122981;27;20446;-70
2023/07/21 01:15:10;;;;;;;3.13;2.43;;;17.90;61.60;;;18.25;54.94;97472.63;5117243;27;20526;-70
2023/07/21 01:17:39;;;;;;;2.27;2.07;;;18.00;61.40;;;19.27;53.17;97475.09;5124007;27;20437;-69
2023/07/21 01:20:10;;;;;;;2.60;2.20;;;18.50;61.50;;;19.38;52.01;97467.63;5137041;27;20532;-71
2023/07/21 01:22:45;;;;;;;2.63;2.43;;;19.00;60.40;;;19.51;51.90;97469.69;5100350;27;20893;-71
2023/07/21 01:25:16;;;;;;;2.80;2.47;;;19.10;60.20;;;19.52;51.94;97465.84;5122390;27;20531;-71
2023/07/21 01:27:47;;;;;;;2.37;2.17;;;19.10;60.40;;;19.09;52.60;97465.66;5120209;27;20570;-71
2023/07/21 01:30:18;;;;;;;3.50;2.30;;;19.00;59.80;;;18.87;53.06;97457.81;5128727;27;20557;-71
2023/07/21 01:32:47;;;;;;;3.30;2.67;;;18.90;60.10;;;18.25;54.15;97420.66;5117381;27;20818;-71
2023/07/21 01:35:17;;;;;;;2.70;2.50;;;18.50;60.50;;;18.65;53.87;97457.13;5138989;27;20875;-70
2023/07/21 01:37:46;;;;;;;3.50;3.20;;;18.40;61.10;;;18.53;54.17;97462.94;5106860;27;20462;-70
2023/07/21 01:40:17;;;;;;;3.10;2.50;;;18.30;61.00;;;17.72;56.30;97460.16;5101730;27;20468;-70
2023/07/21 01:42:47;;;;;;;3.63;2.43;;;17.90;61.30;;;17.88;56.75;97462.88;5126252;27;20449;-69
2023/07/21 01:45:15;;;;;;;2.57;2.37;;;17.70;62.30;;;17.74;56.80;97462.59;5109965;27;20442;-70
2023/07/21 01:47:45;;;;;;;2.87;2.57;;;17.60;62.40;;;17.84;57.19;97457.97;5139972;27;20468;-70
2023/07/21 01:50:15;;;;;;;3.40;2.63;;;17.50;63.30;;;17.56;57.43;97462.09;5124623;27;20450;-70
2023/07/21 01:52:45;;;;;;;2.83;2.63;;;17.40;63.20;;;17.41;57.69;97462.94;5128622;27;21204;-70
2023/07/21 01:55:20;;;;;;;2.60;2.40;;;17.30;63.60;;;17.52;57.64;97461.84;5124414;27;20458;-72
2023/07/21 01:57:54;;;;;;;3.23;2.10;;;17.30;64.20;;;17.43;58.17;97460.75;5126668;27;20465;-70
2023/07/21 02:00:22;;;;;;;3.20;2.90;;;17.20;64.20;;;17.69;57.80;97460.72;5127019;27;20765;-70
2023/07/21 02:02:51;;;;;;;5.37;2.90;;;17.20;64.90;;;17.97;56.86;97453.81;5125989;27;21003;-69
2023/07/21 02:05:25;;;;;;;2.80;2.60;;;17.60;64.30;;;17.91;56.63;97448.63;5137139;27;20531;-70
2023/07/21 02:07:53;;;;;;;2.67;2.47;;;17.60;64.10;;;17.65;57.50;97451.41;5111060;27;20477;-70
2023/07/21 02:10:21;;;;;;;2.37;2.17;;;17.50;64.30;;;17.26;58.45;97442.72;5115761;27;20449;-70
2023/07/21 02:12:49;;;;;;;2.80;2.60;;;17.20;64.50;;;17.11;59.06;97440.00;5129867;27;20496;-71
2023/07/21 02:15:17;;;;;;;3.03;2.60;;;17.10;64.80;;;17.01;59.00;97437.25;5124555;27;20537;-71
2023/07/21 02:17:44;;;;;;;2.93;2.70;;;17.00;65.10;;;16.94;60.09;97430.13;5101938;27;20466;-70
2023/07/21 02:20:14;;;;;;;3.70;3.30;;;16.90;65.70;;;16.90;59.93;97430.94;5129490;27;20948;-71
2023/07/21 02:22:43;;;;;;;4.17;2.50;;;16.80;66.10;;;17.01;59.89;97426.34;5106822;27;20823;-71
2023/07/21 02:25:10;;;;;;;3.37;2.87;;;16.90;66.30;;;17.01;60.05;97424.44;5130452;27;20454;-71
2023/07/21 02:27:39;;;;;;;2.80;2.50;;;16.80;66.40;;;16.84;59.79;97430.94;5114465;27;21015;-71
2023/07/21 02:30:08;;;;;;;3.77;2.80;;;16.80;66.10;;;16.89;59.75;97426.56;5126381;27;20465;-70
2023/07/21 02:32:35;;;;;;;2.83;2.63;;;16.90;66.50;;;17.00;59.75;97428.25;5126600;27;21220;-71
2023/07/21 02:35:06;;;;;;;2.73;2.53;;;16.90;66.50;;;16.92;59.91;97424.13;5128478;27;20510;-71
2023/07/21 02:37:33;;;;;;;3.37;3.07;;;16.90;66.50;;;17.07;59.52;97431.53;5107419;27;20446;-70
2023/07/21 02:40:01;;;;;;;3.10;2.90;;;17.00;66.60;;;16.93;59.69;97414.03;5130764;27;20945;-70
2023/07/21 02:42:28;;;;;;;3.70;3.20;;;17.00;67.10;;;16.95;60.00;97425.47;5115338;27;20978;-70
2023/07/21 02:44:56;;;;;;;3.20;3.00;;;16.90;67.00;;;16.96;60.30;97414.31;5112132;27;20452;-70
2023/07/21 02:47:24;;;;;;;5.70;3.47;;;16.90;67.30;;;17.03;59.57;97421.41;5126734;27;20468;-71
2023/07/21 02:49:51;;;;;;;3.20;2.90;;;16.90;67.30;;;16.95;59.60;97415.41;5126459;27;20502;-71
2023/07/21 02:52:18;;;;;;;3.40;3.10;;;16.90;67.30;;;16.92;60.19;97418.69;5119456;27;20505;-70
2023/07/21 02:54:45;;;;;;;3.00;2.70;;;16.90;67.50;;;16.88;60.70;97422.22;5109044;27;20466;-71
2023/07/21 02:57:12;;;;;;;3.13;2.90;;;16.80;67.90;;;16.91;60.50;97414.31;5128711;27;20441;-71
2023/07/21 02:59:41;;;;;;;4.10;3.20;;;16.80;67.90;;;17.07;60.27;97417.06;5108140;27;20485;-71
2023/07/21 03:02:09;;;;;;;2.97;2.77;;;16.90;68.20;;;17.08;59.92;97413.25;5110762;27;20457;-71
2023/07/21 03:04:37;;;;;;;3.40;3.10;;;16.90;67.90;;;16.99;60.50;97412.97;5112456;27;20457;-71
2023/07/21 03:07:06;;;;;;;2.87;2.67;;;16.90;68.30;;;16.90;60.76;97411.84;5128168;27;20477;-70
2023/07/21 03:09:33;;;;;;;3.30;3.00;;;16.80;68.40;;;16.53;60.89;97359.16;5126120;27;20450;-72
2023/07/21 03:12:00;;;;;;;3.27;2.70;;;16.80;68.50;;;16.83;60.97;97410.22;5124338;27;20450;-71
2023/07/21 03:14:28;;;;;;;3.43;3.13;;;16.80;68.80;;;16.66;61.29;97396.81;5124451;27;20494;-71
2023/07/21 03:16:55;;;;;;;3.17;2.57;;;16.70;69.10;;;16.71;61.29;97410.44;5105215;27;20494;-71
2023/07/21 03:19:24;;;;;;;3.47;3.17;;;16.60;69.40;;;16.67;61.16;97409.34;5113380;27;20454;-70
2023/07/21 03:21:51;;;;;;;3.17;2.87;;;16.60;69.50;;;16.59;61.63;97393.50;5128901;27;20440;-70
2023/07/21 03:24:18;;;;;;;5.57;4.00;;;16.60;69.70;;;16.66;61.64;97402.28;5120847;27;20457;-71
2023/07/21 03:26:45;;;;;;;2.80;2.60;;;16.60;70.10;;;16.64;61.92;97409.91;5120275;27;22256;-70
2023/07/21 03:29:13;;;;;;;2.80;2.60;;;16.50;70.10;;;16.73;61.67;97417.53;5108682;27;20453;-71
2023/07/21 03:31:40;;;;;;;3.50;3.20;;;16.60;70.40;;;16.70;61.55;97421.66;5107082;27;20458;-71
2023/07/21 03:34:08;;;;;;;3.30;3.10;;;16.60;70.40;;;16.58;62.12;97410.97;5129499;27;20494;-70
2023/07/21 03:36:36;;;;;;;6.03;3.10;;;16.50;70.50;;;16.52;62.35;97417.50;5129678;27;20594;-70
2023/07/21 03:39:03;;;;;;;3.80;3.27;;;16.50;70.80;;;16.51;62.26;97421.31;5128156;27;20667;-72
2023/07/21 03:41:31;;;;;;;3.90;3.60;;;16.50;71.00;;;16.40;62.64;97415.84;5126581;27;20448;-71
2023/07/21 03:43:58;;;;;;;4.57;3.03;;;16.40;71.20;;;16.57;62.70;97415.63;5123661;27;20449;-70
2023/07/21 03:46:25;;;;;;;3.23;2.70;;;16.50;71.60;;;16.53;62.22;97410.97;5124372;27;21047;-70
2023/07/21 03:48:53;;;;;;;3.50;3.07;;;16.50;71.50;;;16.52;61.99;97417.50;5126362;27;20540;-70
2023/07/21 03:51:20;;;;;;;3.60;3.30;;;16.40;71.50;;;16.41;62.76;97412.03;5132527;27;20533;-70
2023/07/21 03:53:49;;;;;;;3.40;2.73;;;16.30;71.90;;;16.58;62.15;97416.41;5113103;27;20453;-69
2023/07/21 03:56:18;;;;;;;3.43;3.13;;;16.40;72.10;;;16.49;62.60;97420.78;5125832;27;21206;-70
2023/07/21 03:58:46;;;;;;;3.67;3.40;;;16.30;72.10;;;16.50;62.50;97415.03;5118816;27;20453;-70
2023/07/21 04:01:14;;;;;;;2.87;2.67;;;16.30;72.50;;;16.44;62.91;97410.66;5109205;27;20514;-70
2023/07/21 04:03:41;;;;;;;3.73;3.43;;;16.30;72.70;;;16.54;62.54;97407.16;5110286;27;20662;-71
2023/07/21 04:06:10;;;;;;;4.17;3.10;;;16.40;72.80;;;16.50;62.26;97378.78;5107270;27;20461;-71
2023/07/21 04:08:37;;;;;;;4.63;2.70;;;16.40;72.70;;;16.53;63.01;97408.25;5105509;27;20441;-71
2023/07/21 04:11:06;;;;;;;5.33;3.47;;;16.40;72.70;;;16.64;62.36;97398.16;5109688;27;20442;-71
2023/07/21 04:13:33;;;;;;;3.43;3.13;;;16.50;72.80;;;16.64;62.41;97404.44;5129162;27;20448;-70
2023/07/21 04:16:03;;;;;;;3.53;3.23;;;16.50;72.60;;;16.47;62.91;97409.31;5115891;27;20468;-70
2023/07/21 04:18:31;;;;;;;2.70;2.50;;;16.50;72.70;;;16.55;62.81;97406.06;5098510;27;20971;-71
2023/07/21 04:20:58;;;;;;;3.97;3.60;;;16.50;73.20;;;16.85;61.83;97408.03;5138155;27;20449;-70
2023/07/21 04:23:25;;;;;;;3.77;3.40;;;16.70;72.60;;;17.11;61.11;97396.34;5094127;27;20559;-69
2023/07/21 04:25:54;;;;;;;5.10;3.57;;;17.00;72.30;;;17.01;61.53;97397.16;5130186;27;20470;-70
2023/07/21 04:28:22;;;;;;;4.70;3.77;;;17.00;72.10;;;16.88;61.79;97395.72;5125748;27;20475;-70
2023/07/21 04:30:54;;;;;;;4.00;3.60;;;17.00;72.40;;;16.88;62.36;97398.47;5130878;27;21212;-71
2023/07/21 04:33:21;;;;;;;4.37;3.40;;;17.00;72.80;;;17.02;61.46;97406.16;5118290;27;20539;-70
2023/07/21 04:35:48;;;;;;;3.20;3.00;;;17.00;72.40;;;17.16;61.11;97399.03;5109529;27;20449;-71
2023/07/21 04:38:15;;;;;;;3.63;3.33;;;17.10;72.70;;;17.24;60.92;97405.88;5106618;27;20502;-69
2023/07/21 04:40:44;;;;;;;3.60;3.30;;;17.10;72.30;;;17.31;60.70;97405.59;5124205;27;20458;-71
2023/07/21 04:43:11;;;;;;;3.17;2.87;;;17.20;72.10;;;17.24;61.16;97403.97;5120732;27;20464;-72
2023/07/21 04:45:43;;;;;;;3.80;3.40;;;17.20;72.30;;;17.21;61.76;97403.69;5104063;27;20457;-71
2023/07/21 04:48:11;;;;;;;3.90;3.60;;;17.20;72.50;;;17.09;61.98;97395.78;5105237;28;20462;-70
2023/07/21 04:50:37;;;;;;;3.40;3.00;;;17.10;72.90;;;17.13;61.85;97400.41;5117341;27;21151;-70
2023/07/21 04:53:05;;;;;;;5.60;3.50;;;17.10;73.00;;;16.74;61.78;97340.06;5140897;27;20957;-69
2023/07/21 04:55:32;;;;;;;3.83;3.53;;;17.00;73.00;;;17.20;62.12;97393.88;5124079;27;20453;-70
2023/07/21 04:58:01;;;;;;;3.97;3.57;;;17.10;73.40;;;17.36;61.70;97397.38;5102397;28;20450;-71
2023/07/21 05:00:28;;;;;;;3.27;2.97;;;17.20;73.30;;;17.39;60.97;97397.66;5124515;27;20442;-70
2023/07/21 05:02:57;;;;;;;4.07;3.63;;;17.20;72.70;;;17.60;60.16;97396.81;5119144;27;20460;-70
2023/07/21 05:05:24;;;;;;;3.50;3.20;;;17.40;72.40;;;17.62;59.93;97394.63;5122043;27;20548;-70
2023/07/21 05:07:52;;;;;;;5.70;3.20;;;17.60;72.00;;;17.82;59.09;97393.75;5137163;27;20473;-71
2023/07/21 05:10:20;;;;;;;3.87;3.57;;;17.70;71.40;;;18.19;58.31;97391.72;5122577;27;20470;-69
2023/07/21 05:12:47;;;;;;;3.67;2.93;;;18.10;71.20;;;18.39;57.41;97391.63;5104714;27;20917;-70
2023/07/21 05:15:14;;;;;;;3.87;2.87;;;18.40;70.40;;;18.23;57.95;97399.09;5103111;28;20442;-69
2023/07/21 05:17:42;;;;;;;2.83;2.63;;;18.30;70.20;;;18.16;58.50;97393.09;5116531;27;20485;-70
2023/07/21 05:20:12;;;;;;;3.30;3.00;;;18.20;70.50;;;17.91;57.47;97328.41;5097932;28;20453;-71
2023/07/21 05:22:39;;;;;;;3.40;3.10;;;18.20;70.00;;;17.96;58.22;97397.53;5120294;27;20982;-72
2023/07/21 05:25:09;;;;;;;3.30;3.00;;;18.10;70.00;;;17.83;59.06;97388.03;5125231;27;20454;-71
2023/07/21 05:27:36;;;;;;;4.80;3.40;;;17.90;70.50;;;17.87;58.92;97385.53;5120488;27;20472;-70
2023/07/21 05:30:04;;;;;;;3.20;2.70;;;17.90;70.70;;;17.79;59.22;97386.91;5134099;27;20480;-69
2023/07/21 05:32:31;;;;;;;4.00;3.10;;;17.80;70.80;;;17.80;59.11;97385.81;5120639;27;20457;-70
2023/07/21 05:34:58;;;;;;;4.57;3.50;;;17.80;70.60;;;17.92;59.07;97387.44;5117597;27;20937;-69
2023/07/21 05:37:27;;;;;;;4.17;3.77;;;17.90;70.80;;;18.17;58.74;97377.53;5095709;28;21104;-70
2023/07/21 05:39:54;;;;;;;3.13;2.83;;;18.10;70.80;;;18.97;55.92;97384.66;5115184;27;20472;-70
2023/07/21 05:42:22;;;;;;;3.47;3.20;;;18.70;70.00;;;19.22;55.04;97374.66;5102443;27;20441;-71
2023/07/21 05:44:49;;;;;;;5.03;3.10;;;19.10;69.00;;;21.22;50.77;97377.03;5105085;27;20566;-76
2023/07/21 05:47:19;;;;;;;3.57;3.27;;;20.50;68.10;;;21.68;48.51;97365.53;5116156;27;20473;-76
2023/07/21 05:49:46;;;;;;;4.17;3.23;;;21.50;64.70;;;21.81;48.23;97372.19;5117877;27;20487;-74
2023/07/21 05:52:13;;;;;;;3.03;2.73;;;21.70;63.60;;;22.15;47.32;97371.75;5114279;27;20437;-76
2023/07/21 05:54:42;;;;;;;3.30;3.00;;;21.80;63.10;;;20.49;50.56;97371.00;5101602;27;20444;-75
2023/07/21 05:57:12;;;;;;;3.13;2.93;;;21.10;63.00;;;19.61;52.96;97369.31;5097957;28;20977;-76
2023/07/21 05:59:41;;;;;;;2.83;2.63;;;20.20;64.00;;;19.17;54.16;97371.94;5108730;27;20448;-75
2023/07/21 06:02:08;;;;;;;3.30;2.60;;;19.50;65.20;;;19.54;53.94;97365.03;5100070;27;20468;-75
2023/07/21 06:04:36;;;;;;;3.40;3.10;;;19.50;66.00;;;19.98;52.60;97369.75;5109893;27;20883;-76
2023/07/21 06:07:03;;;;;;;4.60;3.07;;;19.80;65.70;;;20.99;50.55;97369.75;5134060;27;20445;-82
2023/07/21 06:09:30;;;;;;;3.00;2.70;;;20.50;65.80;;;21.25;49.90;97370.16;5135830;27;20457;-76
2023/07/21 06:12:01;;;;;;;7.03;3.60;;;20.80;64.60;;;21.97;48.35;97359.75;5134963;27;20545;-76
2023/07/21 06:14:28;;;;;;;4.70;2.83;;;21.50;64.80;;;23.20;45.74;97363.59;5118122;27;20442;-75
2023/07/21 06:16:55;;;;;;;4.00;2.90;;;22.60;62.80;;;23.56;44.14;97363.78;5099957;27;20467;-75
2023/07/21 06:19:22;;;;;;;2.80;2.60;;;23.50;60.40;;;22.38;46.31;97360.00;5116663;27;20984;-73
2023/07/21 06:21:50;;;;;;;4.00;3.17;;;22.80;59.80;;;21.69;48.09;97351.50;5099141;27;20991;-73
2023/07/21 06:24:18;;;;;;;3.20;2.90;;;22.10;60.80;;;21.50;49.13;97360.63;5117213;27;20541;-72
2023/07/21 06:26:45;;;;;;;5.73;3.07;;;21.50;61.70;;;21.17;49.53;97368.91;5118844;27;20458;-73
2023/07/21 06:29:14;;;;;;;3.60;3.30;;;21.20;62.10;;;21.18;49.65;97365.03;5122270;27;20656;-73
2023/07/21 06:31:41;;;;;;;3.73;3.43;;;21.20;62.10;;;21.21;49.54;97369.94;5099161;27;20500;-74
2023/07/21 06:34:08;;;;;;;4.40;4.00;;;21.20;62.20;;;21.64;48.49;97360.63;5123615;27;20442;-76
2023/07/21 06:36:36;;;;;;;5.27;4.77;;;21.30;62.10;;;21.21;49.39;97363.59;5123252;27;20449;-74
2023/07/21 06:39:04;;;;;;;3.93;3.27;;;21.30;61.80;;;21.69;48.87;97367.19;5122050;27;20458;-75
2023/07/21 06:41:32;;;;;;;3.80;2.77;;;21.40;62.30;;;21.85;47.83;97345.69;5097413;27;20493;-73
2023/07/21 06:43:59;;;;;;;3.33;3.10;;;21.80;61.50;;;21.99;47.48;97363.00;5096134;27;21213;-74
2023/07/21 06:46:27;;;;;;;3.30;3.00;;;22.00;61.00;;;22.10;47.64;97340.81;5120750;27;21024;-75
2023/07/21 06:48:54;;;;;;;4.20;3.10;;;22.20;61.10;;;22.22;47.00;97352.09;5133781;27;20483;-77
2023/07/21 06:51:21;;;;;;;3.27;2.97;;;22.30;60.50;;;;;;5131741;27;20446;-75
2023/07/21 06:53:49;;;;;;;3.90;3.43;;;22.00;60.60;;;21.60;48.15;97350.53;5119867;27;20457;-73
2023/07/21 06:56:16;;;;;;;3.23;2.90;;;21.70;60.70;;;21.83;47.81;97342.44;5101664;27;20530;-73
2023/07/21 06:58:44;;;;;;;5.93;2.77;;;21.70;60.80;;;21.72;47.35;97334.41;5121567;27;20430;-74
2023/07/21 07:01:11;;;;;;;3.67;3.37;;;21.70;60.30;;;22.63;45.94;97350.38;5102120;27;20443;-75
2023/07/21 07:03:41;;;;;;;3.37;3.07;;;22.20;60.30;;;22.93;44.92;97354.31;5119908;27;20450;-75
2023/07/21 07:06:08;;;;;;;3.47;3.17;;;22.70;59.50;;;23.12;44.20;97344.25;5099909;27;20514;-74
2023/07/21 07:08:35;;;;;;;5.37;3.37;;;23.00;58.80;;;23.17;44.13;97339.44;5114575;27;20520;-74
2023/07/21 07:11:02;;;;;;;4.20;2.73;;;23.20;58.30;;;23.09;44.45;97331.91;5110917;27;20456;-73
2023/07/21 07:13:30;;;;;;;5.23;3.23;;;23.10;58.40;;;23.53;43.28;97315.66;5119954;27;21004;-76
2023/07/21 07:15:57;;;;;;;4.60;3.00;;;23.40;58.10;;;23.63;43.26;97340.16;5115348;27;22551;-74
2023/07/21 07:18:25;;;;;;;4.70;3.50;;;23.30;58.30;;;23.72;42.53;97329.16;5121943;27;20466;-83
2023/07/21 07:20:56;;;;;;;5.03;3.93;;;23.40;57.50;;;23.73;42.56;97332.75;5118715;27;20458;-75
2023/07/21 07:23:24;;;;;;;5.37;3.13;;;23.40;57.40;;;23.67;42.66;97328.50;5116484;27;20447;-75
2023/07/21 07:25:53;;;;;;;5.53;3.67;;;23.40;57.20;;;23.29;43.49;97338.88;5119360;27;20466;-73
2023/07/21 07:28:22;;;;;;;3.40;3.07;;;23.10;57.40;;;23.11;43.95;97331.59;5114624;27;21242;-71
2023/07/21 07:30:50;;;;;;;6.50;3.20;;;22.90;57.50;;;23.24;44.03;97341.72;5122520;27;20449;-74
2023/07/21 07:33:17;;;;;;;4.30;3.13;;;22.90;57.80;;;23.08;43.80;97335.00;5121759;27;20526;-73
2023/07/21 07:35:49;;;;;;;3.73;2.97;;;22.90;57.30;;;22.96;43.73;97330.88;5125182;27;20454;-73
2023/07/21 07:38:20;;;;;;;6.40;3.33;;;22.90;57.10;;;23.14;43.39;97330.97;5123333;27;20461;-72
2023/07/21 07:40:47;;;;;;;3.10;2.80;;;22.90;56.90;;;23.42;42.32;97326.13;5119438;27;20463;-72
2023/07/21 07:43:15;;;;;;;3.60;3.30;;;23.30;56.30;;;23.32;42.17;97323.66;5117236;27;20442;-73
2023/07/21 07:45:43;;;;;;;3.37;3.07;;;23.30;55.90;;;23.93;41.36;97328.59;5126226;27;20458;-72
2023/07/21 07:48:10;;;;;;;3.57;3.27;;;23.70;56.00;;;24.11;40.86;97323.13;5123238;27;20946;-72
2023/07/21 07:50:39;;;;;;;2.50;2.30;;;23.80;55.40;;;23.54;41.66;97322.78;5096798;27;20614;-72
2023/07/21 07:53:06;;;;;;;3.10;2.80;;;23.70;55.20;;;23.96;40.80;97327.13;5092838;27;20458;-73
2023/07/21 07:55:39;;;;;;;4.97;3.00;;;23.80;55.00;;;23.83;40.31;97331.63;5119637;27;20539;-75
2023/07/21 07:58:06;;;;;;;3.50;2.53;;;23.70;54.50;;;23.76;40.50;97330.16;5101436;27;20498;-72
2023/07/21 08:00:36;;;;;;;2.60;2.40;;;23.60;54.60;;;23.49;41.19;97329.25;5125308;27;20451;-72
2023/07/21 08:03:04;;;;;;;4.30;3.30;;;23.40;54.70;;;23.49;41.83;97326.50;5121006;27;20458;-73
2023/07/21 08:05:31;;;;;;;3.47;2.70;;;23.40;55.20;;;23.49;41.08;97334.75;5120277;27;20452;-71
2023/07/21 08:08:01;;;;;;;4.17;3.10;;;23.40;54.80;;;23.47;40.73;97338.94;5130553;27;20474;-73
2023/07/21 08:10:28;;;;;;;4.87;3.10;;;23.40;54.60;;;23.38;41.70;97344.41;5105815;27;20452;-73
2023/07/21 08:12:58;;;;;;;3.20;2.90;;;23.40;54.60;;;23.60;40.73;97342.75;5121854;27;20455;-73
2023/07/21 08:15:25;;;;;;;3.40;3.00;;;23.50;54.20;;;23.73;40.58;97341.00;5121511;27;20457;-72
2023/07/21 08:17:53;;;;;;;5.17;3.17;;;23.60;54.40;;;23.66;40.84;97341.47;5124134;27;20546;-72
2023/07/21 08:20:21;;;;;;;3.20;2.90;;;23.60;54.60;;;23.57;41.17;97343.38;5123916;27;20446;-72
2023/07/21 08:22:48;;;;;;;3.57;3.27;;;23.50;54.20;;;23.42;40.95;97336.34;5115290;27;20448;-72
2023/07/21 08:25:18;;;;;;;4.20;2.80;;;23.40;54.10;;;23.51;41.19;97341.91;5102827;27;20511;-72
2023/07/21 08:27:45;;;;;;;3.40;3.07;;;23.30;54.10;;;23.46;41.15;97335.41;5104660;27;20454;-73
2023/07/21 08:30:15;;;;;;;3.33;3.03;;;23.40;53.90;;;23.41;40.36;97337.47;5113965;27;20485;-72
2023/07/21 08:32:42;;;;;;;4.77;3.27;;;23.30;53.60;;;23.62;40.77;97338.53;5117401;27;20457;-72
2023/07/21 08:35:11;;;;;;;3.40;3.10;;;23.40;54.10;;;23.42;40.98;97337.13;5123027;27;20526;-81
2023/07/21 08:37:39;;;;;;;3.30;2.90;;;23.40;53.90;;;22.91;41.44;97334.56;5118348;27;20454;-79
2023/07/21 08:40:08;;;;;;;6.33;3.03;;;23.10;53.70;;;23.13;41.71;97341.19;5112465;27;21064;-76
2023/07/21 08:42:37;;;;;;;4.67;2.63;;;23.10;54.20;;;23.31;41.77;97342.13;5120623;27;20453;-74
2023/07/21 08:45:05;;;;;;;3.27;2.93;;;23.10;54.40;;;23.84;41.03;97330.50;5122584;27;20453;-74
2023/07/21 08:47:35;;;;;;;2.47;2.27;;;23.40;54.60;;;24.05;40.78;97336.28;5122346;27;20448;-75
2023/07/21 08:50:04;;;;;;;4.53;3.20;;;23.70;54.40;;;24.42;39.78;97336.00;5121970;27;20482;-75
2023/07/21 08:52:33;;;;;;;2.60;2.40;;;24.10;54.30;;;24.52;39.43;97340.38;5119653;27;20480;-75
2023/07/21 08:55:01;;;;;;;3.67;3.37;;;24.30;53.70;;;24.66;38.69;97331.97;5121410;27;20465;-72
2023/07/21 08:57:29;;;;;;;4.27;3.17;;;24.40;53.30;;;25.15;38.35;97337.28;5117629;27;20540;-73
2023/07/21 08:59:56;;;;;;;3.40;2.93;;;24.80;53.60;;;25.38;39.02;97331.53;5114795;27;20991;-76
2023/07/21 09:02:42;;;;;;;2.33;2.20;;;25.10;53.70;;;25.30;36.63;97347.81;5106947;27;20450;-76
2023/07/21 09:05:17;;;;;;;2.70;2.50;;;25.20;52.00;;;24.72;36.56;97344.47;5116082;27;20963;-76
2023/07/21 09:07:45;;;;;;;1.90;1.80;;;24.70;51.10;;;24.47;36.73;97346.88;5113631;27;20455;-75
2023/07/21 09:10:13;;;;;;;2.30;1.97;;;24.40;50.60;;;24.55;35.84;97343.31;5116642;27;20450;-76
2023/07/21 09:12:40;;;;;;;2.00;1.90;;;24.40;50.00;;;24.94;36.17;97349.03;5118045;27;20572;-77
2023/07/21 09:15:10;;;;;;;2.30;2.07;;;24.60;50.80;;;25.45;35.69;97352.00;5120384;27;20460;-75
2023/07/21 09:17:43;;;;;;;2.60;2.40;;;25.00;50.60;;;26.16;34.43;97351.75;5103430;27;20466;-76
2023/07/21 09:20:12;;;;;;;2.13;2.03;;;25.60;50.10;;;26.36;34.24;97360.44;5141253;27;20918;-75
2023/07/21 09:22:40;;;;;;;2.20;2.10;;;25.90;49.80;;;26.69;33.53;97356.94;5121561;27;20459;-77
2023/07/21 09:25:09;;;;;;;1.93;1.80;;;26.30;49.50;;;27.31;31.51;97348.88;5125014;27;20457;-76
2023/07/21 09:27:39;;;;;;;2.07;1.73;;;26.80;48.40;;;26.82;31.56;97361.38;5122459;27;21020;-76
2023/07/21 09:30:08;;;;;;;2.27;2.10;;;26.80;47.70;;;27.04;31.73;97340.00;5103867;28;20477;-76
2023/07/21 09:32:41;;;;;;;2.23;2.13;;;26.70;47.90;;;27.57;31.95;97356.13;5123343;27;20449;-77
2023/07/21 09:35:11;;;;;;;2.27;2.07;;;27.00;48.20;;;27.79;31.49;97351.28;5115804;27;20441;-76
2023/07/21 09:37:39;;;;;;;2.73;1.83;;;27.30;48.00;;;27.70;30.34;97357.78;5102686;27;20479;-77
2023/07/21 09:40:09;;;;;;;2.80;2.07;;;27.40;47.30;;;26.97;30.43;97303.75;5112481;27;20950;-74
2023/07/21 09:42:38;;;;;;;1.60;1.50;;;27.00;46.30;;;27.32;28.77;97355.25;5123565;27;20484;-76
2023/07/21 09:45:08;;;;;;;1.90;1.57;;;27.10;44.70;;;27.14;28.39;97350.69;5125506;27;20515;-75
2023/07/21 09:47:35;;;;;;;1.50;1.40;;;27.00;44.20;;;27.04;29.25;97353.88;5105391;27;20446;-75
2023/07/21 09:50:03;;;;;;;1.97;1.60;;;26.90;44.50;;;26.99;29.71;97354.09;5106655;27;21275;-75
2023/07/21 09:52:39;;;;;;;2.33;2.13;;;26.90;44.70;;;26.45;33.02;97347.31;5125740;27;20447;-76
2023/07/21 09:55:10;;;;;;;2.33;2.00;;;26.40;46.90;;;26.00;34.56;97355.06;5137586;27;20528;-76
2023/07/21 09:57:43;;;;;;;2.00;1.90;;;26.00;48.20;;;25.54;35.13;97370.53;5123027;27;20556;-75
2023/07/21 10:00:14;;;;;;;4.50;2.67;;;25.50;48.40;;;25.33;35.48;97362.94;5127528;27;20542;-75
2023/07/21 10:02:43;;;;;;;1.90;1.80;;;25.40;48.80;;;25.16;36.06;97347.19;5123190;27;20510;-75
2023/07/21 10:05:11;;;;;;;1.90;1.80;;;25.20;48.90;;;25.09;36.12;97350.47;5122965;27;20524;-77
2023/07/21 10:07:43;;;;;;;2.00;1.90;;;25.10;48.90;;;25.16;36.36;97347.19;5123134;27;20562;-76
2023/07/21 10:10:12;;;;;;;2.63;2.43;;;25.20;49.10;;;25.20;35.58;97341.81;5114600;27;20502;-75
2023/07/21 10:12:49;;;;;;;3.77;2.63;;;25.30;48.80;;;25.42;36.33;97347.16;5123893;27;20465;-76
2023/07/21 10:15:19;;;;;;;2.07;1.90;;;25.30;49.40;;;25.63;36.03;97354.75;5127655;27;20944;-76
2023/07/21 10:17:57;;;;;;;2.50;2.30;;;25.40;49.60;;;25.58;35.22;97343.88;5125909;27;20923;-77
2023/07/21 10:20:39;;;;;;;2.97;2.10;;;25.40;48.70;;;25.13;35.05;97298.13;5101288;27;20459;-77
2023/07/21 10:23:08;;;;;;;2.97;2.73;;;25.40;48.60;;;25.72;34.19;97343.66;5125619;27;20460;-76
2023/07/21 10:26:04;;;;;;;3.27;2.27;;;25.70;48.30;;;26.00;34.42;97335.69;5128788;27;20487;-76